Time;durP1;ratioP1;P1;durP2;ratioP2;P2;SDS_P1;SDS_P2;PMS_P1;PMS_P2;Temp;Humidity;BMP_temperature;BMP_pressure;BME280_temperature;BME280_humidity;BME280_pressure;Samples;Min_cycle;Max_cycle;Signal;HPM_P1;HPM_P2
2022/09/16 00:01:43;;;;;;;6.18;3.70;;;24.20;69.20;;;;;;5090368;28;20121;-85
2022/09/16 00:04:09;;;;;;;7.55;4.57;;;24.10;69.30;;;;;;5072619;28;20032;-84
2022/09/16 00:06:34;;;;;;;6.53;3.58;;;24.10;70.00;;;;;;5093388;28;20356;-81
2022/09/16 00:09:00;;;;;;;5.57;3.42;;;24.10;69.30;;;;;;5090153;28;20111;-79
2022/09/16 00:11:27;;;;;;;5.18;3.58;;;24.00;70.10;;;;;;5090489;28;20109;-78
2022/09/16 00:13:53;;;;;;;6.18;3.65;;;24.10;69.30;;;;;;5090598;28;20387;-90
2022/09/16 00:16:21;;;;;;;5.78;3.78;;;24.10;69.50;;;;;;5081332;28;20022;-83
2022/09/16 00:18:47;;;;;;;4.80;3.50;;;24.30;68.80;;;;;;5110689;28;20367;-79
2022/09/16 00:21:13;;;;;;;4.82;3.65;;;24.30;69.40;;;;;;5110605;28;20073;-91
2022/09/16 00:23:39;;;;;;;5.78;3.40;;;24.30;68.70;;;;;;5110472;28;20382;-84
2022/09/16 00:26:05;;;;;;;4.47;3.15;;;24.30;69.00;;;;;;5083613;28;20463;-79
2022/09/16 00:28:31;;;;;;;4.45;3.40;;;24.30;68.80;;;;;;5072407;28;20478;-90
2022/09/16 00:31:01;;;;;;;4.45;3.53;;;24.40;68.50;;;;;;5072821;28;20024;-88
2022/09/16 00:33:27;;;;;;;5.13;3.58;;;24.30;68.70;;;;;;5090211;28;20028;-80
2022/09/16 00:36:05;;;;;;;4.30;3.25;;;24.30;68.80;;;;;;5076423;28;20490;-78
2022/09/16 00:38:31;;;;;;;4.38;3.38;;;24.40;68.00;;;;;;5101256;28;20024;-85
2022/09/16 00:40:57;;;;;;;4.40;3.33;;;24.50;68.00;;;;;;5092179;28;20031;-83
2022/09/16 00:43:23;;;;;;;5.63;3.40;;;24.60;68.00;;;;;;5110052;28;20118;-79
2022/09/16 00:46:03;;;;;;;4.80;3.17;;;24.80;67.00;;;;;;5080702;28;20032;-78
2022/09/16 00:48:31;;;;;;;;;;;24.80;66.80;;;;;;5092432;28;20024;-86
2022/09/16 00:51:02;;;;;;;6.05;3.28;;;24.90;66.30;;;;;;5090817;28;20309;-85
2022/09/16 00:53:32;;;;;;;5.22;3.80;;;24.50;67.30;;;;;;5110380;28;20370;-81
2022/09/16 00:55:59;;;;;;;4.50;3.43;;;24.60;67.20;;;;;;5064534;28;20028;-87
2022/09/16 00:58:33;;;;;;;5.03;3.38;;;24.60;66.60;;;;;;5076681;28;20031;-78
2022/09/16 01:00:59;;;;;;;4.50;3.55;;;24.60;66.30;;;;;;5064191;28;20117;-91
2022/09/16 01:03:27;;;;;;;4.93;3.47;;;24.60;66.50;;;;;;5096197;28;20036;-87
2022/09/16 01:05:53;;;;;;;4.90;3.30;;;24.40;66.20;;;;;;5078569;28;20024;-85
2022/09/16 01:08:19;;;;;;;6.22;3.85;;;24.30;66.00;;;;;;5078182;28;20429;-89
2022/09/16 01:10:45;;;;;;;5.95;3.80;;;24.10;66.50;;;;;;5076553;28;20020;-79
2022/09/16 01:13:13;;;;;;;5.25;3.78;;;23.70;68.10;;;;;;5069659;28;20387;-78
2022/09/16 01:15:50;;;;;;;6.85;3.92;;;23.80;67.70;;;;;;5075619;28;20414;-85
2022/09/16 01:18:29;;;;;;;6.65;4.28;;;23.80;67.40;;;;;;5057814;28;20035;-93
2022/09/16 01:21:33;;;;;;;5.85;4.22;;;24.20;66.70;;;;;;5075448;28;20058;-93
2022/09/16 01:24:16;;;;;;;4.90;3.50;;;24.50;65.70;;;;;;5057548;28;20134;-85
2022/09/16 01:26:52;;;;;;;5.35;3.88;;;24.50;65.40;;;;;;5058027;28;20056;-92
2022/09/16 01:29:48;;;;;;;4.90;3.75;;;24.60;65.10;;;;;;5075633;28;20032;-93
2022/09/16 01:32:37;;;;;;;6.38;4.22;;;24.70;64.50;;;;;;5091879;28;20382;-86
2022/09/16 01:35:14;;;;;;;6.43;4.40;;;24.90;64.20;;;;;;4994386;28;20060;-79
2022/09/16 01:38:03;;;;;;;8.27;4.18;;;24.80;64.30;;;;;;4994473;28;20039;-87
2022/09/16 01:40:38;;;;;;;5.32;4.28;;;24.80;64.10;;;;;;4978848;28;20451;-82
2022/09/16 01:43:18;;;;;;;6.07;4.20;;;24.70;64.50;;;;;;4974284;28;20414;-79
2022/09/16 01:46:08;;;;;;;6.13;4.70;;;24.50;65.10;;;;;;4958600;28;20060;-85
2022/09/16 01:48:37;;;;;;;6.13;4.38;;;24.60;65.00;;;;;;4958692;28;20094;-78
2022/09/16 01:51:28;;;;;;;7.47;4.60;;;24.60;65.20;;;;;;4993796;28;20030;-84
2022/09/16 01:54:07;;;;;;;7.10;4.32;;;24.60;65.10;;;;;;4994018;28;20070;-88
2022/09/16 01:56:43;;;;;;;7.35;5.18;;;24.50;65.40;;;;;;4993916;28;20478;-83
2022/09/16 01:59:23;;;;;;;8.20;5.10;;;24.30;65.60;;;;;;4976647;28;20398;-81
2022/09/16 02:02:03;;;;;;;6.75;5.60;;;24.20;65.70;;;;;;4994118;28;20613;-81
2022/09/16 02:04:36;;;;;;;8.20;6.47;;;23.90;67.00;;;;;;4989352;28;20046;-88
2022/09/16 02:07:06;;;;;;;7.32;5.88;;;23.70;67.40;;;;;;4992983;28;20081;-83
2022/09/16 02:09:38;;;;;;;7.95;5.82;;;23.40;68.40;;;;;;4976761;28;20030;-81
2022/09/16 02:12:09;;;;;;;8.70;6.38;;;23.40;68.70;;;;;;5043678;28;20028;-81
2022/09/16 02:14:41;;;;;;;8.55;5.72;;;23.40;69.00;;;;;;5095008;28;20039;-91
2022/09/16 02:17:13;;;;;;;13.32;7.57;;;23.50;68.90;;;;;;5076056;28;20077;-87
2022/09/16 02:19:43;;;;;;;10.02;7.28;;;23.50;68.60;;;;;;5076928;28;20425;-85
2022/09/16 02:22:13;;;;;;;9.47;7.07;;;23.10;69.00;;;;;;5095152;28;20030;-78
2022/09/16 02:24:42;;;;;;;13.10;6.80;;;23.30;69.20;;;;;;5076884;28;20788;-79
2022/09/16 02:27:14;;;;;;;9.82;7.53;;;23.50;68.20;;;;;;5066274;28;20036;-85
2022/09/16 02:29:45;;;;;;;10.93;7.75;;;23.50;68.30;;;;;;5073818;28;20063;-89
2022/09/16 02:32:13;;;;;;;12.35;8.70;;;23.00;69.10;;;;;;5057283;28;20020;-87
2022/09/16 02:34:43;;;;;;;10.88;7.95;;;23.10;68.80;;;;;;5074763;28;20024;-86
2022/09/16 02:37:31;;;;;;;10.77;7.85;;;23.20;68.00;;;;;;5059740;28;20052;-82
2022/09/16 02:40:04;;;;;;;11.77;8.70;;;23.40;67.80;;;;;;5056524;28;20032;-89
2022/09/16 02:42:29;;;;;;;11.02;8.13;;;23.40;67.60;;;;;;5088278;28;20031;-84
2022/09/16 02:44:57;;;;;;;11.73;8.73;;;23.20;67.80;;;;;;5076453;28;20044;-87
2022/09/16 02:47:30;;;;;;;10.43;8.30;;;23.00;68.10;;;;;;5092355;28;20024;-84
2022/09/16 02:50:15;;;;;;;11.63;8.23;;;23.20;67.80;;;;;;5076706;28;20030;-82
2022/09/16 02:52:55;;;;;;;10.60;8.40;;;23.10;67.50;;;;;;5056543;28;20025;-84
2022/09/16 02:55:21;;;;;;;;;;;23.20;67.80;;;;;;5056662;28;20479;-87
2022/09/16 02:57:48;;;;;;;11.75;9.73;;;23.30;68.20;;;;;;5070899;28;19911;-82
2022/09/16 03:00:14;;;;;;;11.43;8.18;;;23.50;66.90;;;;;;5056114;28;20020;-81
2022/09/16 03:02:40;;;;;;;11.77;9.07;;;23.70;66.30;;;;;;5055839;28;20421;-84
2022/09/16 03:05:08;;;;;;;14.20;8.52;;;23.70;66.40;;;;;;5056030;28;20074;-82
2022/09/16 03:07:34;;;;;;;11.90;9.10;;;23.90;66.00;;;;;;5074442;28;20024;-81
2022/09/16 03:10:01;;;;;;;15.63;9.57;;;23.90;65.80;;;;;;5071751;28;20021;-89
2022/09/16 03:12:52;;;;;;;12.45;9.40;;;23.80;65.70;;;;;;5056132;28;20115;-85
2022/09/16 03:15:35;;;;;;;12.32;8.95;;;23.40;66.40;;;;;;5055808;28;20034;-88
2022/09/16 03:18:22;;;;;;;12.38;8.88;;;23.20;67.20;;;;;;5073611;28;20028;-83
2022/09/16 03:21:00;;;;;;;13.82;9.65;;;23.30;66.60;;;;;;5072264;28;20091;-82
2022/09/16 03:23:44;;;;;;;13.05;10.45;;;23.30;66.50;;;;;;5075825;28;20436;-85
2022/09/16 03:26:15;;;;;;;14.20;10.50;;;23.50;65.80;;;;;;5075821;28;20035;-81
2022/09/16 03:28:44;;;;;;;13.07;9.95;;;23.70;65.30;;;;;;5074822;28;20024;-82
2022/09/16 03:31:17;;;;;;;15.60;10.73;;;24.00;64.90;;;;;;5075575;28;20064;-80
2022/09/16 03:34:02;;;;;;;15.18;9.57;;;24.30;64.30;;;;;;5075368;28;20107;-83
2022/09/16 03:36:33;;;;;;;13.40;9.85;;;24.10;63.90;;;;;;5075394;28;20081;-81
2022/09/16 03:39:00;;;;;;;15.35;9.75;;;23.90;64.50;;;;;;5057649;28;20088;-89
2022/09/16 03:41:28;;;;;;;13.20;9.70;;;24.00;64.10;;;;;;5055443;28;20081;-85
2022/09/16 03:43:58;;;;;;;13.35;9.68;;;24.10;63.70;;;;;;5073304;28;20051;-85
2022/09/16 03:46:25;;;;;;;12.70;9.73;;;24.10;63.80;;;;;;5073336;28;20032;-81
2022/09/16 03:48:51;;;;;;;15.00;10.38;;;24.20;63.60;;;;;;5073398;28;20122;-83
2022/09/16 03:51:17;;;;;;;13.45;9.80;;;24.30;63.40;;;;;;5079009;28;20045;-83
2022/09/16 03:53:43;;;;;;;15.55;10.45;;;24.30;63.30;;;;;;5093484;28;20471;-81
2022/09/16 03:56:08;;;;;;;14.95;10.88;;;24.30;63.50;;;;;;5075163;28;20028;-79
2022/09/16 03:58:34;;;;;;;14.05;10.75;;;24.20;63.50;;;;;;5075140;28;20055;-80
2022/09/16 04:01:00;;;;;;;15.98;10.90;;;24.20;63.30;;;;;;5071314;28;20016;-79
2022/09/16 04:03:25;;;;;;;13.88;9.73;;;24.30;63.20;;;;;;5054864;28;20047;-79
2022/09/16 04:05:52;;;;;;;14.55;9.95;;;24.20;62.60;;;;;;5055320;28;20525;-82
2022/09/16 04:08:18;;;;;;;12.93;10.57;;;24.10;63.40;;;;;;5055140;28;20036;-82
2022/09/16 04:11:05;;;;;;;12.27;9.38;;;24.20;63.10;;;;;;5072311;28;20036;-86
2022/09/16 04:13:33;;;;;;;14.40;10.02;;;24.30;62.50;;;;;;5072281;28;20043;-81
2022/09/16 04:15:59;;;;;;;15.35;10.80;;;24.00;62.90;;;;;;5072883;28;20059;-81
2022/09/16 04:18:25;;;;;;;13.93;10.30;;;23.80;63.30;;;;;;5072904;28;20055;-89
2022/09/16 04:20:56;;;;;;;13.52;10.27;;;23.80;63.20;;;;;;5058879;28;20378;-79
2022/09/16 04:23:23;;;;;;;14.55;10.85;;;23.80;63.50;;;;;;5074838;28;20036;-81
2022/09/16 04:25:57;;;;;;;16.60;10.00;;;23.90;63.10;;;;;;5075442;28;20035;-83
2022/09/16 04:28:23;;;;;;;15.68;10.07;;;23.80;63.50;;;;;;5075094;28;20024;-80
2022/09/16 04:30:49;;;;;;;13.15;9.38;;;23.80;63.20;;;;;;5068975;28;20031;-80
2022/09/16 04:33:15;;;;;;;12.45;9.18;;;23.70;63.50;;;;;;5062795;28;20024;-82
2022/09/16 04:35:40;;;;;;;13.65;10.40;;;23.40;64.50;;;;;;5097097;28;20103;-86
2022/09/16 04:38:06;;;;;;;13.23;9.45;;;23.30;64.20;;;;;;5096964;28;20035;-81
2022/09/16 04:40:32;;;;;;;12.65;9.35;;;23.30;64.30;;;;;;5074967;28;20031;-87
2022/09/16 04:42:57;;;;;;;17.00;10.88;;;23.10;64.40;;;;;;5078283;28;20235;-82
2022/09/16 04:45:23;;;;;;;13.35;9.38;;;23.30;63.80;;;;;;5078588;28;20474;-84
2022/09/16 04:47:58;;;;;;;12.30;9.70;;;23.40;63.60;;;;;;5078662;28;20474;-86
2022/09/16 04:50:24;;;;;;;15.13;10.23;;;23.40;63.50;;;;;;5095303;28;20024;-79
2022/09/16 04:52:50;;;;;;;14.88;10.98;;;23.50;63.50;;;;;;5082232;28;20024;-80
2022/09/16 04:55:17;;;;;;;15.05;10.52;;;23.70;62.90;;;;;;5075779;28;20029;-90
2022/09/16 04:57:43;;;;;;;12.82;9.50;;;23.70;63.00;;;;;;5075505;28;20095;-90
2022/09/16 05:00:09;;;;;;;14.55;10.27;;;23.90;62.70;;;;;;5063828;28;20539;-80
2022/09/16 05:02:35;;;;;;;16.38;11.15;;;24.00;62.60;;;;;;5094229;28;20039;-80
2022/09/16 05:05:01;;;;;;;20.83;15.13;;;24.00;62.70;;;;;;5091086;28;20390;-80
2022/09/16 05:07:29;;;;;;;20.58;14.25;;;24.00;62.30;;;;;;5092236;28;20079;-81
2022/09/16 05:09:55;;;;;;;17.65;12.13;;;23.80;62.70;;;;;;5066273;28;20059;-81
2022/09/16 05:12:21;;;;;;;17.15;11.85;;;23.90;62.60;;;;;;5076932;28;20028;-80
2022/09/16 05:14:46;;;;;;;15.32;10.07;;;24.00;62.20;;;;;;5071004;28;20056;-78
2022/09/16 05:17:12;;;;;;;13.23;9.57;;;24.00;62.50;;;;;;5095287;28;20035;-80
2022/09/16 05:19:38;;;;;;;13.10;9.23;;;23.80;62.80;;;;;;5095384;28;20047;-80
2022/09/16 05:22:06;;;;;;;15.10;9.82;;;23.70;62.90;;;;;;5076937;28;20099;-89
2022/09/16 05:24:35;;;;;;;14.00;10.10;;;23.80;63.10;;;;;;5094365;28;20028;-90
2022/09/16 05:27:01;;;;;;;14.48;10.23;;;23.80;62.50;;;;;;5076317;28;20023;-81
2022/09/16 05:29:27;;;;;;;12.95;9.95;;;23.80;63.10;;;;;;5076673;28;20024;-87
2022/09/16 05:31:53;;;;;;;14.57;9.93;;;23.40;63.00;;;;;;5077410;28;20034;-81
2022/09/16 05:34:21;;;;;;;12.80;9.45;;;23.40;63.30;;;;;;5095845;28;20016;-85
2022/09/16 05:36:52;;;;;;;12.05;9.00;;;23.30;63.20;;;;;;5077128;28;20028;-82
2022/09/16 05:39:19;;;;;;;12.60;9.27;;;23.40;63.50;;;;;;5076762;28;20533;-80
2022/09/16 05:41:46;;;;;;;13.48;10.27;;;23.20;63.30;;;;;;5094295;28;20478;-84
2022/09/16 05:44:12;;;;;;;12.90;9.80;;;23.10;64.00;;;;;;5075833;28;20040;-84
2022/09/16 05:46:40;;;;;;;14.30;10.10;;;23.30;64.10;;;;;;5075882;28;20111;-84
2022/09/16 05:49:06;;;;;;;14.13;9.77;;;23.50;63.60;;;;;;5076507;28;20028;-87
2022/09/16 05:51:32;;;;;;;11.43;8.60;;;23.70;62.90;;;;;;5074984;28;20093;-80
2022/09/16 05:53:59;;;;;;;14.50;10.43;;;23.70;62.80;;;;;;5071357;28;20365;-83
2022/09/16 05:56:27;;;;;;;11.25;8.88;;;23.60;63.10;;;;;;5056839;28;20459;-81
2022/09/16 05:58:55;;;;;;;13.73;9.27;;;23.90;62.50;;;;;;5076578;28;20086;-83
2022/09/16 06:01:27;;;;;;;16.98;14.98;;;24.10;62.10;;;;;;5078660;28;20387;-80
2022/09/16 06:03:56;;;;;;;15.07;10.70;;;24.40;61.40;;;;;;5091852;28;20089;-87
2022/09/16 06:06:32;;;;;;;13.52;9.10;;;24.70;60.80;;;;;;5074484;28;20016;-83
2022/09/16 06:09:10;;;;;;;13.68;9.60;;;24.90;60.40;;;;;;5072312;28;20459;-80
2022/09/16 06:11:42;;;;;;;14.93;10.68;;;24.70;61.20;;;;;;5075051;28;20069;-79
2022/09/16 06:14:09;;;;;;;14.82;9.90;;;24.60;61.70;;;;;;5093162;28;20068;-81
2022/09/16 06:16:36;;;;;;;11.15;8.88;;;24.70;61.00;;;;;;5093079;28;20383;-82
2022/09/16 06:19:05;;;;;;;13.93;9.63;;;24.40;61.30;;;;;;5071656;28;20027;-79
2022/09/16 06:21:31;;;;;;;14.90;10.50;;;24.40;61.40;;;;;;5090610;28;20061;-79
2022/09/16 06:23:57;;;;;;;15.10;9.02;;;24.60;61.00;;;;;;5074997;28;20032;-81
2022/09/16 06:26:24;;;;;;;12.70;9.50;;;24.70;60.70;;;;;;5074673;28;20032;-79
2022/09/16 06:28:51;;;;;;;13.13;9.65;;;24.90;60.80;;;;;;5074596;28;20073;-78
2022/09/16 06:31:19;;;;;;;16.98;10.00;;;24.90;60.20;;;;;;5074859;28;20470;-80
2022/09/16 06:33:45;;;;;;;12.43;10.07;;;24.90;60.60;;;;;;5092311;28;20093;-78
2022/09/16 06:36:13;;;;;;;12.40;9.85;;;25.00;60.40;;;;;;5074659;28;20024;-78
2022/09/16 06:38:40;;;;;;;14.10;10.18;;;25.10;60.10;;;;;;5073658;28;20388;-82
2022/09/16 06:41:08;;;;;;;17.38;9.85;;;25.10;60.30;;;;;;5074602;28;20066;-78
2022/09/16 06:43:35;;;;;;;11.27;8.40;;;24.70;60.60;;;;;;5074270;28;20138;-78
2022/09/16 06:46:04;;;;;;;11.63;8.40;;;24.80;61.20;;;;;;5093359;28;20030;-83
2022/09/16 06:48:32;;;;;;;11.88;9.20;;;24.90;61.10;;;;;;5075559;28;20031;-82
2022/09/16 06:51:04;;;;;;;11.52;8.10;;;25.10;60.40;;;;;;5075399;28;20034;-79
2022/09/16 06:53:30;;;;;;;11.60;8.48;;;25.10;60.30;;;;;;5074193;28;20035;-78
2022/09/16 06:56:01;;;;;;;12.63;8.85;;;25.10;60.60;;;;;;5072988;28;20050;-83
2022/09/16 06:58:30;;;;;;;12.30;8.35;;;25.10;60.80;;;;;;5072895;28;20386;-81
2022/09/16 07:00:56;;;;;;;10.70;8.27;;;25.10;61.20;;;;;;5079955;28;20525;-81
2022/09/16 07:03:22;;;;;;;11.57;8.70;;;24.70;61.40;;;;;;5083519;28;20123;-79
2022/09/16 07:05:59;;;;;;;11.77;8.45;;;24.50;61.80;;;;;;5074467;28;20021;-80
2022/09/16 07:08:26;;;;;;;12.45;8.48;;;24.60;62.10;;;;;;5063587;28;20390;-82
2022/09/16 07:11:07;;;;;;;13.38;8.57;;;24.80;61.70;;;;;;5073461;28;20028;-80
2022/09/16 07:13:33;;;;;;;;;;;24.90;61.40;;;;;;5056841;28;20029;-86
2022/09/16 07:16:00;;;;;;;14.55;8.27;;;25.10;61.00;;;;;;5073461;28;19965;-80
2022/09/16 07:18:26;;;;;;;8.80;7.50;;;24.80;61.70;;;;;;5073530;28;20040;-86
2022/09/16 07:20:52;;;;;;;10.15;7.22;;;24.90;62.00;;;;;;5073548;28;20036;-81
2022/09/16 07:23:21;;;;;;;10.43;7.60;;;25.20;61.60;;;;;;5054807;28;20036;-84
2022/09/16 07:25:47;;;;;;;11.50;7.10;;;25.40;61.30;;;;;;5055268;28;20029;-81
2022/09/16 07:28:12;;;;;;;10.85;7.47;;;25.40;60.60;;;;;;5055328;28;20032;-85
2022/09/16 07:30:38;;;;;;;10.93;8.27;;;25.30;60.70;;;;;;5073179;28;20391;-81
2022/09/16 07:33:03;;;;;;;8.30;6.82;;;25.30;60.90;;;;;;5055377;28;20024;-84
2022/09/16 07:35:29;;;;;;;9.25;7.50;;;25.60;60.40;;;;;;5073377;28;20024;-83
2022/09/16 07:37:55;;;;;;;10.63;8.00;;;25.40;60.30;;;;;;5072887;28;20031;-79
2022/09/16 07:40:21;;;;;;;11.20;7.65;;;25.40;61.00;;;;;;5073011;28;20058;-81
2022/09/16 07:42:46;;;;;;;10.95;8.00;;;25.40;60.70;;;;;;5054886;28;20478;-82
2022/09/16 07:45:12;;;;;;;10.55;8.45;;;25.10;60.60;;;;;;5073482;28;20028;-84
2022/09/16 07:47:38;;;;;;;11.88;7.13;;;24.90;60.70;;;;;;5055091;28;20056;-91
2022/09/16 07:50:04;;;;;;;10.07;7.65;;;25.10;60.90;;;;;;5055280;28;20021;-83
2022/09/16 07:52:29;;;;;;;13.93;8.82;;;25.10;60.90;;;;;;5054690;28;20017;-81
2022/09/16 07:54:55;;;;;;;11.73;7.93;;;25.40;61.20;;;;;;5072903;28;20029;-87
2022/09/16 07:57:21;;;;;;;11.02;7.35;;;25.50;60.80;;;;;;5055052;28;20489;-80
2022/09/16 07:59:47;;;;;;;11.88;8.02;;;25.60;60.90;;;;;;5072888;28;20024;-82
2022/09/16 08:02:13;;;;;;;12.10;7.85;;;25.70;60.10;;;;;;5072666;28;20039;-81
2022/09/16 08:04:42;;;;;;;10.18;7.40;;;25.70;59.60;;;;;;5056385;28;20093;-84
2022/09/16 08:07:08;;;;;;;10.32;7.53;;;26.10;59.80;;;;;;5059093;28;20052;-79
2022/09/16 08:09:34;;;;;;;10.65;7.22;;;26.30;59.90;;;;;;5058417;28;20119;-81
2022/09/16 08:12:02;;;;;;;11.63;8.05;;;26.20;59.50;;;;;;5077021;28;20047;-81
2022/09/16 08:14:28;;;;;;;13.02;7.82;;;26.10;59.10;;;;;;5059286;28;20029;-81
2022/09/16 08:16:54;;;;;;;10.90;8.15;;;25.80;59.00;;;;;;5076438;28;20036;-80
2022/09/16 08:19:21;;;;;;;11.07;8.10;;;25.70;58.70;;;;;;5058468;28;20066;-83
2022/09/16 08:21:47;;;;;;;10.52;6.60;;;25.70;58.50;;;;;;5058446;28;20115;-79
2022/09/16 08:24:12;;;;;;;12.18;7.85;;;25.80;59.50;;;;;;5076473;28;20120;-80
2022/09/16 08:26:39;;;;;;;12.32;8.00;;;25.90;58.70;;;;;;5076509;28;20038;-83
2022/09/16 08:29:05;;;;;;;9.57;7.78;;;25.90;57.90;;;;;;5076026;28;20498;-79
2022/09/16 08:31:31;;;;;;;9.20;7.30;;;26.00;58.10;;;;;;5058403;28;20060;-79
2022/09/16 08:33:57;;;;;;;11.38;6.55;;;26.40;57.90;;;;;;5058209;28;20159;-80
2022/09/16 08:36:24;;;;;;;10.38;7.78;;;26.50;58.10;;;;;;5076386;28;20056;-83
2022/09/16 08:38:54;;;;;;;9.60;7.43;;;26.30;58.00;;;;;;5076161;28;20425;-80
2022/09/16 08:41:45;;;;;;;11.07;7.22;;;26.40;58.30;;;;;;5058505;28;20364;-79
2022/09/16 08:44:14;;;;;;;10.45;7.00;;;26.40;57.90;;;;;;5058035;28;20549;-92
2022/09/16 08:47:01;;;;;;;11.20;8.25;;;26.30;58.30;;;;;;5058716;28;20028;-83
2022/09/16 08:49:32;;;;;;;11.35;7.07;;;26.20;58.00;;;;;;5075992;28;20070;-88
2022/09/16 08:52:02;;;;;;;11.70;7.10;;;26.30;58.60;;;;;;5058121;28;20028;-82
2022/09/16 08:54:39;;;;;;;9.48;6.53;;;26.20;57.90;;;;;;5076350;28;20021;-81
2022/09/16 08:57:08;;;;;;;10.40;6.65;;;26.10;58.30;;;;;;5054386;28;20033;-81
2022/09/16 08:59:42;;;;;;;10.02;7.32;;;26.20;58.80;;;;;;5058226;28;20476;-93
2022/09/16 09:02:22;;;;;;;10.05;6.97;;;26.20;58.60;;;;;;5076048;28;20138;-83
2022/09/16 09:04:48;;;;;;;9.63;7.28;;;26.20;58.20;;;;;;5057893;28;20044;-81
2022/09/16 09:07:35;;;;;;;8.13;5.80;;;26.30;57.50;;;;;;5075913;28;20028;-83
2022/09/16 09:10:23;;;;;;;11.52;6.20;;;26.30;58.50;;;;;;5075848;28;20055;-82
2022/09/16 09:13:00;;;;;;;9.48;6.10;;;26.80;58.60;;;;;;5057698;28;20075;-84
2022/09/16 09:16:06;;;;;;;9.23;6.00;;;27.40;56.10;;;;;;5057238;28;20122;-80
2022/09/16 09:19:09;;;;;;;11.18;5.72;;;27.90;56.40;;;;;;5057055;28;20423;-84
2022/09/16 09:21:44;;;;;;;7.88;5.43;;;28.00;54.60;;;;;;5075469;28;20045;-79
2022/09/16 09:24:34;;;;;;;8.90;4.80;;;28.00;54.60;;;;;;5075261;28;20103;-83
2022/09/16 09:27:16;;;;;;;7.97;4.80;;;28.20;54.30;;;;;;5057833;28;20028;-83
2022/09/16 09:30:07;;;;;;;7.68;4.50;;;28.40;54.50;;;;;;5057027;28;20024;-83
2022/09/16 09:32:39;;;;;;;7.38;4.35;;;27.60;53.30;;;;;;5075521;28;20076;-80
2022/09/16 09:35:14;;;;;;;6.40;3.90;;;27.00;55.20;;;;;;5075374;28;20071;-87
2022/09/16 09:37:54;;;;;;;6.47;4.20;;;27.10;55.30;;;;;;5057930;28;20032;-86
2022/09/16 09:40:45;;;;;;;7.15;4.10;;;27.30;54.60;;;;;;5057730;28;20024;-92
2022/09/16 09:43:14;;;;;;;6.47;3.90;;;27.10;54.20;;;;;;5056725;28;20055;-81
2022/09/16 09:46:15;;;;;;;6.90;4.15;;;27.30;55.10;;;;;;5057665;28;20483;-84
2022/09/16 09:48:46;;;;;;;7.95;4.47;;;27.40;54.20;;;;;;5057142;28;20387;-82
2022/09/16 09:51:26;;;;;;;8.82;4.20;;;27.10;54.50;;;;;;5056991;28;20028;-83
2022/09/16 09:54:01;;;;;;;5.43;3.35;;;27.40;54.50;;;;;;5057166;28;20024;-83
2022/09/16 09:56:33;;;;;;;5.85;3.70;;;27.00;51.70;;;;;;5057136;28;20036;-82
2022/09/16 09:59:34;;;;;;;7.82;3.85;;;26.90;54.50;;;;;;5057388;28;20501;-80
2022/09/16 10:02:00;;;;;;;5.18;3.40;;;27.10;55.10;;;;;;5057186;28;20031;-82
2022/09/16 10:04:36;;;;;;;5.28;3.45;;;27.10;53.90;;;;;;5074450;28;20055;-83
2022/09/16 10:07:04;;;;;;;6.90;3.45;;;27.20;54.80;;;;;;5056867;28;20042;-83
2022/09/16 10:09:30;;;;;;;4.45;3.05;;;27.30;53.40;;;;;;5056846;28;20020;-85
2022/09/16 10:11:56;;;;;;;7.03;2.95;;;27.60;53.60;;;;;;5074674;28;20075;-89
2022/09/16 10:14:31;;;;;;;7.82;3.17;;;27.50;52.10;;;;;;5056958;28;20119;-85
2022/09/16 10:17:01;;;;;;;5.57;3.30;;;27.50;52.00;;;;;;5074623;28;20027;-86
2022/09/16 10:19:29;;;;;;;9.40;3.10;;;27.80;52.30;;;;;;5074753;28;20105;-83
2022/09/16 10:22:17;;;;;;;8.27;3.13;;;28.00;52.20;;;;;;5074327;28;20028;-83
2022/09/16 10:24:53;;;;;;;6.93;3.58;;;27.80;51.70;;;;;;5074390;28;20429;-88
2022/09/16 10:27:31;;;;;;;6.43;2.95;;;27.60;51.70;;;;;;5073542;28;20043;-88
2022/09/16 10:30:16;;;;;;;4.90;3.10;;;27.70;51.30;;;;;;5056533;28;20025;-84
2022/09/16 10:33:08;;;;;;;6.43;2.97;;;27.70;52.00;;;;;;5074306;28;20021;-82
2022/09/16 10:35:36;;;;;;;5.70;3.50;;;27.70;52.30;;;;;;5042353;28;20036;-88
2022/09/16 10:38:05;;;;;;;6.78;3.33;;;27.60;52.70;;;;;;5055977;28;20021;-82
2022/09/16 10:40:32;;;;;;;6.90;3.50;;;27.50;53.00;;;;;;5074280;28;20032;-86
2022/09/16 10:43:06;;;;;;;5.15;3.35;;;27.30;52.90;;;;;;5073628;28;20040;-81
2022/09/16 10:45:36;;;;;;;7.25;3.22;;;27.00;53.00;;;;;;5055975;28;20101;-77
2022/09/16 10:48:10;;;;;;;4.00;2.90;;;26.90;54.00;;;;;;5074165;28;20095;-82
2022/09/16 10:50:36;;;;;;;4.53;3.28;;;27.00;52.90;;;;;;5056011;28;20418;-79
2022/09/16 10:53:02;;;;;;;4.13;2.88;;;27.20;53.00;;;;;;5055487;28;20017;-83
2022/09/16 10:55:35;;;;;;;5.72;3.00;;;27.30;53.40;;;;;;5056828;28;20055;-79
2022/09/16 10:58:17;;;;;;;4.65;2.72;;;27.20;52.60;;;;;;5055514;28;20025;-87
2022/09/16 11:00:52;;;;;;;4.65;2.60;;;27.10;53.20;;;;;;5073932;28;20028;-85
2022/09/16 11:03:51;;;;;;;7.25;3.55;;;26.90;52.30;;;;;;5055638;28;20129;-79
2022/09/16 11:06:31;;;;;;;5.55;2.92;;;27.10;51.80;;;;;;5073448;28;20056;-79
2022/09/16 11:09:19;;;;;;;3.92;2.70;;;27.20;52.50;;;;;;5055656;28;20021;-81
2022/09/16 11:11:56;;;;;;;4.55;2.80;;;27.20;52.60;;;;;;5055571;28;20120;-84
2022/09/16 11:14:48;;;;;;;6.22;2.80;;;26.90;51.40;;;;;;5056107;28;20056;-81
2022/09/16 11:17:22;;;;;;;4.60;2.45;;;26.90;52.60;;;;;;4992259;28;20485;-82
2022/09/16 11:20:18;;;;;;;5.13;2.60;;;27.10;51.20;;;;;;4992360;28;20137;-88
2022/09/16 11:23:08;;;;;;;5.95;2.30;;;27.20;51.20;;;;;;4992802;28;20085;-82
2022/09/16 11:26:09;;;;;;;3.78;2.38;;;27.40;51.70;;;;;;4992424;28;20466;-81
2022/09/16 11:28:52;;;;;;;5.32;2.50;;;27.60;50.40;;;;;;4899411;29;20052;-82
2022/09/16 11:31:48;;;;;;;4.13;2.55;;;27.80;50.90;;;;;;4899175;29;20174;-81
2022/09/16 11:34:51;;;;;;;5.55;2.38;;;27.80;50.20;;;;;;4915240;29;20043;-83
2022/09/16 11:37:25;;;;;;;4.88;2.65;;;27.90;50.90;;;;;;4898901;29;20024;-90
2022/09/16 11:40:26;;;;;;;4.35;2.50;;;28.00;51.00;;;;;;4898897;29;20035;-85
2022/09/16 11:43:08;;;;;;;4.00;2.50;;;28.10;49.90;;;;;;4914689;29;20032;-91
2022/09/16 11:45:55;;;;;;;4.70;2.53;;;27.60;50.00;;;;;;4914910;29;20071;-82
2022/09/16 11:48:51;;;;;;;5.63;2.90;;;27.60;50.80;;;;;;4899084;29;20032;-87
2022/09/16 11:51:35;;;;;;;6.50;2.60;;;27.90;50.50;;;;;;4899161;29;20032;-87
2022/09/16 11:54:10;;;;;;;5.00;2.60;;;27.80;50.20;;;;;;4937914;28;20466;-83
2022/09/16 11:56:41;;;;;;;5.00;2.72;;;27.80;51.50;;;;;;4972007;28;20035;-83
2022/09/16 11:59:40;;;;;;;6.03;2.80;;;27.90;50.90;;;;;;4972411;28;20045;-80
2022/09/16 12:02:27;;;;;;;4.88;2.67;;;28.00;50.20;;;;;;4936914;28;20554;-79
2022/09/16 12:04:57;;;;;;;3.97;2.40;;;28.00;50.70;;;;;;4955814;28;20050;-82
2022/09/16 12:07:28;;;;;;;4.10;2.60;;;28.10;50.50;;;;;;4991485;28;20041;-78
2022/09/16 12:09:57;;;;;;;5.10;2.70;;;28.20;50.50;;;;;;4992049;28;20054;-79
2022/09/16 12:12:47;;;;;;;7.93;2.75;;;28.40;51.50;;;;;;4991792;28;20060;-80
2022/09/16 12:15:32;;;;;;;4.35;2.50;;;28.50;50.50;;;;;;4991568;28;20058;-80
2022/09/16 12:18:09;;;;;;;4.60;2.33;;;28.70;51.30;;;;;;4974811;28;20117;-80
2022/09/16 12:20:40;;;;;;;4.75;2.25;;;28.70;50.50;;;;;;4991311;28;20031;-82
2022/09/16 12:23:21;;;;;;;5.80;2.50;;;28.50;51.10;;;;;;4974875;28;20042;-80
2022/09/16 12:26:11;;;;;;;4.65;2.30;;;28.60;50.90;;;;;;4974923;28;20026;-81
2022/09/16 12:29:08;;;;;;;3.60;2.23;;;28.50;50.30;;;;;;4991572;28;20030;-84
2022/09/16 12:31:39;;;;;;;5.68;2.40;;;28.50;49.40;;;;;;4967531;28;20066;-83
2022/09/16 12:34:13;;;;;;;4.40;2.50;;;28.30;49.50;;;;;;4975198;28;20061;-85
2022/09/16 12:36:42;;;;;;;4.78;2.30;;;28.30;50.70;;;;;;4974921;28;20117;-83
2022/09/16 12:39:11;;;;;;;6.25;2.42;;;28.30;50.40;;;;;;5026208;28;20032;-79
2022/09/16 12:42:01;;;;;;;3.97;2.50;;;28.20;50.40;;;;;;5072363;28;20016;-80
2022/09/16 12:45:02;;;;;;;4.43;2.10;;;28.50;50.80;;;;;;5054197;28;20047;-80
2022/09/16 12:47:54;;;;;;;3.15;2.17;;;28.50;49.50;;;;;;5072303;28;20025;-80
2022/09/16 12:50:41;;;;;;;5.72;2.35;;;28.60;49.60;;;;;;5071160;28;20090;-83
2022/09/16 12:53:24;;;;;;;4.25;2.38;;;28.70;49.50;;;;;;5058097;28;20383;-77
2022/09/16 12:55:59;;;;;;;4.78;2.30;;;28.60;49.70;;;;;;5075756;28;20054;-82
2022/09/16 12:58:46;;;;;;;4.15;2.20;;;28.60;49.10;;;;;;5057776;28;20024;-81
2022/09/16 13:01:21;;;;;;;6.75;2.72;;;28.00;49.80;;;;;;5075592;28;20077;-80
2022/09/16 13:04:02;;;;;;;4.15;2.50;;;27.90;49.90;;;;;;5057760;28;20029;-81
2022/09/16 13:06:35;;;;;;;5.20;2.20;;;27.90;50.40;;;;;;5057712;28;20074;-83
2022/09/16 13:09:25;;;;;;;4.75;2.28;;;27.90;49.70;;;;;;5057268;28;20029;-80
2022/09/16 13:12:00;;;;;;;5.13;2.15;;;28.10;49.70;;;;;;5075437;28;20017;-80